LFHP/LPY METAR and TAF weather

Enter ICAO airport designator
Station Type Date Time Source
LFHP METAR 2019/04/20 19:00 UTC NOAA

LFHP 201900Z AUTO 36002KT CAVOK 11/07 Q1022


Station Type Date Time Source
LFHP Decoded METAR 2019/04/20 19:00 UTC NOAA

Le Puy, France (LFHP) 45-05N 003-46E 833M
Apr 20, 2019 - 03:00 PM EDT / 2019.04.20 1900 UTC
Wind: from the N (360 degrees) at 2 MPH (2 KT):0
Visibility: greater than 7 mile(s):0
Temperature: 51 F (11 C)
Dew Point: 44 F (7 C)
Relative Humidity: 76%
Pressure (altimeter): 30.18 in. Hg (1022 hPa)
ob: LFHP 201900Z AUTO 36002KT CAVOK 11/07 Q1022
cycle: 19

Station Type Date Time Source
LFHP TAF UTC NOAA

Error!

Example: see airport list